Time;durP1;ratioP1;P1;durP2;ratioP2;P2;SDS_P1;SDS_P2;PMS_P1;PMS_P2;Temp;Humidity;BMP_temperature;BMP_pressure;BME280_temperature;BME280_humidity;BME280_pressure;Samples;Min_cycle;Max_cycle;Signal;HPM_P1;HPM_P2
2022/05/04 00:01:23;;;;;;;1999.90;999.90;;;16.40;51.20;;;;;;4995400;28;20057;-81
2022/05/04 00:03:49;;;;;;;1999.90;999.90;;;16.40;51.30;;;;;;5026005;28;20379;-81
2022/05/04 00:06:15;;;;;;;1999.90;999.90;;;16.40;51.40;;;;;;5029632;28;20488;-81
2022/05/04 00:08:41;;;;;;;1999.90;999.90;;;16.30;51.40;;;;;;5027868;28;20029;-81
2022/05/04 00:11:07;;;;;;;1999.90;999.90;;;16.30;51.50;;;;;;5016766;28;20025;-81
2022/05/04 00:13:34;;;;;;;1999.90;999.90;;;16.30;51.50;;;;;;5021610;28;20022;-81
2022/05/04 00:16:01;;;;;;;1999.90;999.90;;;16.30;51.60;;;;;;5008730;28;20406;-81
2022/05/04 00:18:30;;;;;;;1999.90;999.90;;;16.30;51.70;;;;;;5042510;28;20026;-81
2022/05/04 00:20:56;;;;;;;1999.90;999.90;;;16.30;51.70;;;;;;5012118;28;20037;-81
2022/05/04 00:23:23;;;;;;;1999.90;999.90;;;16.20;51.70;;;;;;5025271;28;20044;-81
2022/05/04 00:25:49;;;;;;;1999.90;999.90;;;16.20;51.80;;;;;;5026915;28;20025;-81
2022/05/04 00:28:15;;;;;;;1999.90;999.90;;;16.20;51.90;;;;;;5025254;28;20047;-81
2022/05/04 00:30:41;;;;;;;1999.90;999.90;;;16.10;51.90;;;;;;5040292;28;20044;-81
2022/05/04 00:33:07;;;;;;;1999.90;999.90;;;16.10;51.90;;;;;;5045005;28;20044;-81
2022/05/04 00:35:34;;;;;;;1999.90;999.90;;;16.10;51.90;;;;;;5032129;28;20505;-81
2022/05/04 00:38:00;;;;;;;1999.90;999.90;;;16.10;52.00;;;;;;5021197;28;20119;-81
2022/05/04 00:40:26;;;;;;;1999.90;999.90;;;16.10;52.10;;;;;;5016496;28;20033;-81
2022/05/04 00:42:52;;;;;;;1999.90;999.90;;;16.00;52.10;;;;;;5029162;28;20042;-81
2022/05/04 00:45:18;;;;;;;1999.90;999.90;;;16.00;52.10;;;;;;5031086;28;20038;-81
2022/05/04 00:47:45;;;;;;;1999.90;999.90;;;16.00;52.20;;;;;;5031154;28;20173;-81
2022/05/04 00:50:11;;;;;;;1999.90;999.90;;;16.00;52.30;;;;;;5019968;28;20360;-81
2022/05/04 00:52:38;;;;;;;1999.90;999.90;;;16.00;52.30;;;;;;5032907;28;20029;-81
2022/05/04 00:55:08;;;;;;;1999.90;999.90;;;16.00;52.40;;;;;;5028755;28;20056;-81
2022/05/04 01:00:23;;;;;;;1999.90;999.90;;;15.90;52.40;;;;;;5030632;28;20037;-81
2022/05/04 01:02:49;;;;;;;1999.90;999.90;;;15.90;52.60;;;;;;5025647;28;20049;-81
2022/05/04 01:05:15;;;;;;;1999.90;999.90;;;15.80;52.60;;;;;;5029629;28;20120;-81
2022/05/04 01:07:42;;;;;;;1999.90;999.90;;;15.80;52.60;;;;;;5039303;28;20044;-81
2022/05/04 01:10:09;;;;;;;1999.90;999.90;;;15.80;52.60;;;;;;5029475;28;20033;-81
2022/05/04 01:12:43;;;;;;;1999.90;999.90;;;15.80;52.70;;;;;;5012482;28;20029;-81
2022/05/04 01:15:10;;;;;;;1999.90;999.90;;;15.80;52.80;;;;;;5012225;28;20025;-81
2022/05/04 01:17:36;;;;;;;1999.90;999.90;;;15.70;52.80;;;;;;5029963;28;20053;-81
2022/05/04 01:20:02;;;;;;;1999.90;999.90;;;15.70;52.90;;;;;;5036957;28;20040;-81
2022/05/04 01:22:28;;;;;;;1999.90;999.90;;;15.70;52.90;;;;;;5017632;28;20060;-81
2022/05/04 01:24:55;;;;;;;1999.90;999.90;;;15.70;53.10;;;;;;5013328;28;20057;-81
2022/05/04 01:27:21;;;;;;;1999.90;999.90;;;15.60;53.00;;;;;;5045109;28;20033;-81
2022/05/04 01:29:48;;;;;;;1999.90;999.90;;;15.60;53.00;;;;;;5030601;28;20021;-81
2022/05/04 01:32:14;;;;;;;1999.90;999.90;;;15.60;53.10;;;;;;5034259;28;20057;-81
2022/05/04 01:34:40;;;;;;;1999.90;999.90;;;15.60;53.20;;;;;;5031892;28;20025;-81
2022/05/04 01:37:06;;;;;;;1999.90;999.90;;;15.60;53.80;;;;;;5028460;28;20056;-81
2022/05/04 01:39:32;;;;;;;1999.90;999.90;;;15.50;53.30;;;;;;5030009;28;20037;-81
2022/05/04 01:42:05;;;;;;;1999.90;999.90;;;15.50;53.40;;;;;;5031064;28;20045;-81
2022/05/04 01:44:32;;;;;;;1999.90;999.90;;;15.40;53.40;;;;;;5030451;28;20459;-81
2022/05/04 01:46:59;;;;;;;1999.90;999.90;;;15.40;53.50;;;;;;5020225;28;20025;-80
2022/05/04 01:49:25;;;;;;;1999.90;999.90;;;15.30;53.50;;;;;;5030731;28;20036;-81
2022/05/04 01:51:51;;;;;;;1999.90;999.90;;;15.30;53.50;;;;;;5012338;28;20052;-80
2022/05/04 01:54:17;;;;;;;1999.90;999.90;;;15.30;53.60;;;;;;5044307;28;20025;-81
2022/05/04 01:56:43;;;;;;;1999.90;999.90;;;15.30;53.60;;;;;;5030101;28;20482;-81
2022/05/04 01:59:09;;;;;;;1999.90;999.90;;;15.20;53.70;;;;;;5035332;28;20026;-81
2022/05/04 02:01:38;;;;;;;1999.90;999.90;;;15.20;53.80;;;;;;5015244;28;20038;-81
2022/05/04 02:04:04;;;;;;;1999.90;999.90;;;15.10;53.80;;;;;;5011391;28;20021;-80
2022/05/04 02:06:31;;;;;;;1999.90;999.90;;;15.10;53.90;;;;;;5044598;28;20066;-81
2022/05/04 02:08:57;;;;;;;1999.90;999.90;;;15.10;53.90;;;;;;5029839;28;20025;-80
2022/05/04 02:11:24;;;;;;;1999.90;999.90;;;15.10;53.90;;;;;;5024010;28;20044;-81
2022/05/04 02:13:50;;;;;;;1999.90;999.90;;;15.10;54.00;;;;;;5005246;28;20040;-81
2022/05/04 02:16:16;;;;;;;1999.90;999.90;;;15.10;54.00;;;;;;5026656;28;20050;-81
2022/05/04 02:18:42;;;;;;;1999.90;999.90;;;15.10;54.00;;;;;;5042254;28;20033;-81
2022/05/04 02:21:09;;;;;;;1999.90;999.90;;;15.10;54.00;;;;;;5026674;28;20025;-81
2022/05/04 02:23:36;;;;;;;1999.90;999.90;;;15.00;54.00;;;;;;5030398;28;20037;-80
2022/05/04 02:26:02;;;;;;;1999.90;999.90;;;15.00;54.20;;;;;;5029823;28;20398;-81
2022/05/04 02:28:28;;;;;;;1999.90;999.90;;;15.00;54.80;;;;;;5039303;28;20044;-81
2022/05/04 02:30:54;;;;;;;1999.90;999.90;;;14.90;54.30;;;;;;5010504;28;20030;-81
2022/05/04 02:33:20;;;;;;;1999.90;999.90;;;14.90;54.40;;;;;;5026702;28;20041;-80
2022/05/04 02:38:31;;;;;;;1999.90;999.90;;;14.80;54.50;;;;;;5028393;28;20037;-80
2022/05/04 02:40:57;;;;;;;1999.90;999.90;;;14.70;54.60;;;;;;5029566;28;20037;-80
2022/05/04 02:43:25;;;;;;;1999.90;999.90;;;14.70;54.70;;;;;;5039241;28;20045;-80
2022/05/04 02:45:51;;;;;;;1999.90;999.90;;;14.70;54.70;;;;;;5026440;28;20045;-80
2022/05/04 02:48:17;;;;;;;1999.90;999.90;;;14.70;54.70;;;;;;5042899;28;20131;-80
2022/05/04 02:50:43;;;;;;;1999.90;999.90;;;14.60;54.80;;;;;;5027627;28;20040;-80
2022/05/04 02:53:09;;;;;;;1999.90;999.90;;;14.60;54.90;;;;;;5026669;28;20036;-81
2022/05/04 02:55:35;;;;;;;1999.90;999.90;;;14.60;54.90;;;;;;5026209;28;20033;-81
2022/05/04 02:58:01;;;;;;;1999.90;999.90;;;14.60;54.90;;;;;;5011774;28;20030;-80
2022/05/04 03:00:27;;;;;;;1999.90;999.90;;;14.60;54.90;;;;;;5026519;28;26535;-80
2022/05/04 03:02:54;;;;;;;1999.90;999.90;;;14.60;54.90;;;;;;5029374;28;20041;-80
2022/05/04 03:05:20;;;;;;;1999.90;999.90;;;14.60;55.00;;;;;;5032073;28;20064;-80
2022/05/04 03:07:47;;;;;;;1999.90;999.90;;;14.60;55.00;;;;;;5030843;28;20041;-81
2022/05/04 03:10:16;;;;;;;1999.90;999.90;;;14.60;55.00;;;;;;5029288;28;20042;-80
2022/05/04 03:12:42;;;;;;;1999.90;999.90;;;14.60;55.10;;;;;;5032195;28;20494;-80
2022/05/04 03:15:09;;;;;;;1999.90;999.90;;;14.60;55.10;;;;;;5025348;28;20029;-80
2022/05/04 03:17:35;;;;;;;1999.90;999.90;;;14.60;55.10;;;;;;5027326;28;20045;-80
2022/05/04 03:20:01;;;;;;;1999.90;999.90;;;14.60;55.10;;;;;;5021045;28;20037;-80
2022/05/04 03:22:29;;;;;;;1999.90;999.90;;;14.60;55.10;;;;;;5027366;28;20053;-81
2022/05/04 03:24:55;;;;;;;1999.90;999.90;;;14.60;55.10;;;;;;5023633;28;20029;-80
2022/05/04 03:27:21;;;;;;;1999.90;999.90;;;14.60;55.10;;;;;;5043286;28;20036;-81
2022/05/04 03:29:48;;;;;;;1999.90;999.90;;;14.60;55.10;;;;;;5027269;28;20041;-81
2022/05/04 03:32:14;;;;;;;1999.90;999.90;;;14.60;55.20;;;;;;5025225;28;20048;-80
2022/05/04 03:34:40;;;;;;;1999.90;999.90;;;14.60;55.20;;;;;;5025996;28;20033;-81
2022/05/04 03:37:07;;;;;;;1999.90;999.90;;;14.60;55.30;;;;;;5009876;28;20030;-80
2022/05/04 03:39:33;;;;;;;1999.90;999.90;;;14.60;55.30;;;;;;5028956;28;20033;-81
2022/05/04 03:41:59;;;;;;;1999.90;999.90;;;14.60;55.40;;;;;;5030643;28;20045;-81
2022/05/04 03:44:25;;;;;;;1999.90;999.90;;;14.50;55.40;;;;;;5027122;28;20040;-81
2022/05/04 03:46:52;;;;;;;1999.90;999.90;;;14.60;55.50;;;;;;5018530;28;20390;-81
2022/05/04 03:49:20;;;;;;;1999.90;999.90;;;14.50;55.40;;;;;;5030251;28;20034;-81
2022/05/04 03:51:46;;;;;;;1999.90;999.90;;;14.50;55.50;;;;;;5026875;28;20030;-81
2022/05/04 03:54:12;;;;;;;1999.90;999.90;;;14.60;55.50;;;;;;5030208;28;20029;-81
2022/05/04 03:56:39;;;;;;;1999.90;999.90;;;14.60;56.10;;;;;;5026935;28;20036;-81
2022/05/04 03:59:05;;;;;;;1999.90;999.90;;;14.60;55.50;;;;;;4995847;28;20218;-81
2022/05/04 04:01:31;;;;;;;1999.90;999.90;;;14.60;55.50;;;;;;5026350;28;20041;-81
2022/05/04 04:03:57;;;;;;;1999.90;999.90;;;14.60;55.60;;;;;;5039068;28;20045;-81
2022/05/04 04:06:23;;;;;;;1999.90;999.90;;;14.60;55.60;;;;;;5027298;28;20045;-81
2022/05/04 04:08:50;;;;;;;1999.90;999.90;;;14.50;55.70;;;;;;5031309;28;20470;-81
2022/05/04 04:11:16;;;;;;;1999.90;999.90;;;14.50;55.80;;;;;;5029475;28;20037;-82
2022/05/04 04:13:42;;;;;;;1999.90;999.90;;;14.40;56.00;;;;;;5009832;28;20056;-81
2022/05/04 04:16:09;;;;;;;1999.90;999.90;;;14.40;56.00;;;;;;5018334;28;20430;-81
2022/05/04 04:18:35;;;;;;;1999.90;999.90;;;14.30;56.10;;;;;;5031244;28;23739;-81
2022/05/04 04:23:46;;;;;;;1999.90;999.90;;;14.20;56.20;;;;;;5039951;28;20498;-82
2022/05/04 04:26:12;;;;;;;1999.90;999.90;;;14.20;56.20;;;;;;5036950;28;20037;-82
2022/05/04 04:28:39;;;;;;;1999.90;999.90;;;14.20;56.20;;;;;;5033745;28;20029;-82
2022/05/04 04:31:05;;;;;;;1999.90;999.90;;;14.20;56.50;;;;;;5029017;28;20048;-82
2022/05/04 04:33:31;;;;;;;1999.90;999.90;;;14.20;56.30;;;;;;5014532;28;20042;-81
2022/05/04 04:35:58;;;;;;;1999.90;999.90;;;14.20;56.30;;;;;;5032919;28;20034;-82
2022/05/04 04:38:25;;;;;;;1999.90;999.90;;;14.20;56.30;;;;;;5030241;28;20030;-81
2022/05/04 04:40:51;;;;;;;1999.90;999.90;;;14.20;56.30;;;;;;5023338;28;20036;-82
2022/05/04 04:43:17;;;;;;;1999.90;999.90;;;14.20;56.30;;;;;;5030512;28;20371;-81
2022/05/04 04:45:44;;;;;;;1999.90;999.90;;;14.20;56.30;;;;;;5028765;28;20411;-81
2022/05/04 04:48:11;;;;;;;1999.90;999.90;;;14.30;56.30;;;;;;5012249;28;20030;-82
2022/05/04 04:50:37;;;;;;;1999.90;999.90;;;14.20;56.30;;;;;;5030641;28;20033;-82
2022/05/04 04:53:03;;;;;;;1999.90;999.90;;;14.20;56.30;;;;;;5031550;28;20494;-83
2022/05/04 04:55:29;;;;;;;1999.90;999.90;;;14.30;56.40;;;;;;5024696;28;20034;-82
2022/05/04 04:57:55;;;;;;;1999.90;999.90;;;14.20;56.40;;;;;;5028598;28;20026;-81
2022/05/04 05:00:22;;;;;;;1999.90;999.90;;;14.20;56.40;;;;;;5045246;28;20041;-81
2022/05/04 05:02:48;;;;;;;1999.90;999.90;;;14.20;56.50;;;;;;5030945;28;20053;-82
2022/05/04 05:05:14;;;;;;;1999.90;999.90;;;14.20;56.50;;;;;;5029747;28;20060;-81
2022/05/04 05:07:40;;;;;;;1999.90;999.90;;;14.20;56.50;;;;;;5040295;28;20471;-81
2022/05/04 05:10:06;;;;;;;1999.90;999.90;;;14.20;56.50;;;;;;5029210;28;20029;-82
2022/05/04 05:12:32;;;;;;;1999.90;999.90;;;14.20;56.60;;;;;;5029756;28;20030;-81
2022/05/04 05:17:43;;;;;;;1999.90;999.90;;;14.20;56.60;;;;;;5015895;28;20061;-82
2022/05/04 05:20:10;;;;;;;1999.90;999.90;;;14.20;56.70;;;;;;5014433;28;20037;-81
2022/05/04 05:22:36;;;;;;;1999.90;999.90;;;14.20;56.80;;;;;;5028068;28;20053;-81
2022/05/04 05:25:02;;;;;;;1999.90;999.90;;;14.20;57.40;;;;;;5028246;28;20025;-81
2022/05/04 05:27:32;;;;;;;1999.90;999.90;;;14.20;56.80;;;;;;5044908;28;20037;-82
2022/05/04 05:29:58;;;;;;;1999.90;999.90;;;14.20;56.80;;;;;;5030764;28;20033;-82
2022/05/04 05:32:24;;;;;;;1999.90;999.90;;;14.20;56.90;;;;;;5028883;28;20374;-82
2022/05/04 05:34:50;;;;;;;1999.90;999.90;;;14.10;56.90;;;;;;5029672;28;20033;-82
2022/05/04 05:37:17;;;;;;;1999.90;999.90;;;14.10;57.00;;;;;;5029048;28;20048;-82
2022/05/04 05:39:43;;;;;;;1999.90;999.90;;;14.10;57.10;;;;;;5029993;28;20034;-81
2022/05/04 05:42:10;;;;;;;1999.90;999.90;;;14.10;57.10;;;;;;5032164;28;20446;-82
2022/05/04 05:44:36;;;;;;;1999.90;999.90;;;14.10;57.20;;;;;;5030981;28;20056;-82
2022/05/04 05:47:02;;;;;;;1999.90;999.90;;;14.10;57.10;;;;;;5028945;28;20033;-82
2022/05/04 05:49:28;;;;;;;1999.90;999.90;;;14.10;57.20;;;;;;5040219;28;20045;-82
2022/05/04 05:51:55;;;;;;;1999.90;999.90;;;14.10;57.20;;;;;;5011427;28;20082;-82
2022/05/04 05:54:21;;;;;;;1999.90;999.90;;;14.10;57.30;;;;;;5028091;28;20037;-82
2022/05/04 05:56:47;;;;;;;1999.90;999.90;;;14.10;57.40;;;;;;5029927;28;20469;-82
2022/05/04 05:59:13;;;;;;;1999.90;999.90;;;14.00;57.30;;;;;;5034923;28;20052;-82
2022/05/04 06:01:39;;;;;;;1999.90;999.90;;;14.10;57.40;;;;;;5028327;28;20036;-81
2022/05/04 06:04:05;;;;;;;1999.90;999.90;;;14.00;57.60;;;;;;5029062;28;20481;-81
2022/05/04 06:06:32;;;;;;;1999.90;999.90;;;14.00;57.50;;;;;;5044467;28;20029;-81
2022/05/04 06:08:58;;;;;;;1999.90;999.90;;;14.10;57.50;;;;;;5030414;28;20045;-81
2022/05/04 06:11:24;;;;;;;1999.90;999.90;;;14.10;57.50;;;;;;5016333;28;20041;-81
2022/05/04 06:13:53;;;;;;;1999.90;999.90;;;14.10;57.50;;;;;;4991157;28;20042;-82
2022/05/04 06:16:19;;;;;;;1999.90;999.90;;;14.10;57.60;;;;;;5027807;28;20060;-82
2022/05/04 06:18:45;;;;;;;1999.90;999.90;;;14.10;57.60;;;;;;5042264;28;20394;-82
2022/05/04 06:21:12;;;;;;;1999.90;999.90;;;14.10;57.70;;;;;;5026812;28;20037;-82
2022/05/04 06:23:38;;;;;;;1999.90;999.90;;;14.10;57.70;;;;;;5011312;28;20044;-82
2022/05/04 06:26:05;;;;;;;1999.90;999.90;;;14.10;57.70;;;;;;5026838;28;20111;-82
2022/05/04 06:28:31;;;;;;;1999.90;999.90;;;14.10;57.80;;;;;;5012723;28;20056;-81
2022/05/04 06:36:26;;;;;;;1999.90;999.90;;;14.10;57.90;;;;;;5032566;28;20029;-82
2022/05/04 06:38:52;;;;;;;1999.90;999.90;;;14.10;57.90;;;;;;5029932;28;20033;-82
2022/05/04 06:41:19;;;;;;;1999.90;999.90;;;14.10;57.90;;;;;;5001162;28;20053;-82
2022/05/04 06:43:45;;;;;;;1999.90;999.90;;;14.10;57.90;;;;;;5031233;28;20386;-82
2022/05/04 06:46:11;;;;;;;1999.90;999.90;;;14.10;57.90;;;;;;5027538;28;20029;-82
2022/05/04 06:48:37;;;;;;;1999.90;999.90;;;14.10;57.90;;;;;;4994836;28;20407;-82
2022/05/04 06:51:04;;;;;;;1999.90;999.90;;;14.10;57.90;;;;;;5031160;28;20033;-82
2022/05/04 06:53:30;;;;;;;1999.90;999.90;;;14.10;57.90;;;;;;5031663;28;20033;-82
2022/05/04 06:55:56;;;;;;;1999.90;999.90;;;14.10;57.90;;;;;;5030575;28;20029;-82
2022/05/04 06:58:22;;;;;;;1999.90;999.90;;;14.10;58.00;;;;;;5029061;28;20418;-82
2022/05/04 07:00:49;;;;;;;1999.90;999.90;;;14.10;58.00;;;;;;5026140;28;20029;-82
2022/05/04 07:03:15;;;;;;;1999.90;999.90;;;14.10;58.00;;;;;;5042751;28;20037;-82
2022/05/04 07:05:41;;;;;;;1999.90;999.90;;;14.20;58.00;;;;;;5013391;28;20040;-82
2022/05/04 07:08:07;;;;;;;1999.90;999.90;;;14.20;58.00;;;;;;5026564;28;20033;-82
2022/05/04 07:10:34;;;;;;;1999.90;999.90;;;14.20;58.10;;;;;;5009629;28;20033;-82
2022/05/04 07:13:00;;;;;;;1999.90;999.90;;;14.10;58.20;;;;;;5018002;28;20767;-82
2022/05/04 07:15:27;;;;;;;1999.90;999.90;;;14.10;58.20;;;;;;5029288;28;20036;-81
2022/05/04 07:17:53;;;;;;;1999.90;999.90;;;14.10;58.30;;;;;;5028150;28;20050;-82
2022/05/04 07:20:19;;;;;;;1999.90;999.90;;;14.00;58.30;;;;;;5026351;28;20467;-82
2022/05/04 07:22:45;;;;;;;1999.90;999.90;;;14.10;58.40;;;;;;5027100;28;20033;-81
2022/05/04 07:25:11;;;;;;;1999.90;999.90;;;14.00;58.30;;;;;;5024446;28;20041;-82
2022/05/04 07:27:37;;;;;;;1999.90;999.90;;;14.10;58.30;;;;;;5012200;28;20021;-82
2022/05/04 07:30:04;;;;;;;1999.90;999.90;;;14.10;58.30;;;;;;5029429;28;20060;-82
2022/05/04 07:32:30;;;;;;;1999.90;999.90;;;14.10;58.30;;;;;;4997097;28;20030;-82
2022/05/04 07:34:56;;;;;;;1999.90;999.90;;;14.10;58.30;;;;;;5016713;28;20041;-82
2022/05/04 07:37:22;;;;;;;1999.90;999.90;;;14.10;58.40;;;;;;5028369;28;20044;-82
2022/05/04 07:42:33;;;;;;;1999.90;999.90;;;14.10;58.40;;;;;;5045325;28;20030;-82
2022/05/04 07:45:00;;;;;;;1999.90;999.90;;;14.10;58.50;;;;;;5033806;28;20052;-82
2022/05/04 07:47:27;;;;;;;1999.90;999.90;;;14.10;58.50;;;;;;5018890;28;20048;-82
2022/05/04 07:49:54;;;;;;;1999.90;999.90;;;14.10;58.50;;;;;;5018186;28;20359;-82
2022/05/04 07:52:20;;;;;;;1999.90;999.90;;;14.10;58.50;;;;;;5017978;28;20068;-82
2022/05/04 07:54:46;;;;;;;1999.90;999.90;;;14.10;58.50;;;;;;5030200;28;20026;-82
2022/05/04 07:57:12;;;;;;;1999.90;999.90;;;14.10;58.60;;;;;;5029589;28;20033;-82
2022/05/04 07:59:38;;;;;;;1999.90;999.90;;;14.10;58.70;;;;;;5030538;28;20482;-82
2022/05/04 08:04:50;;;;;;;1999.90;999.90;;;14.10;58.80;;;;;;5032846;28;20037;-82
2022/05/04 08:07:17;;;;;;;1999.90;999.90;;;14.00;58.80;;;;;;5041298;28;20490;-82
2022/05/04 08:09:43;;;;;;;1999.90;999.90;;;14.00;58.80;;;;;;5030367;28;20040;-82
2022/05/04 08:12:11;;;;;;;1999.90;999.90;;;14.00;58.80;;;;;;5039189;28;20029;-82
2022/05/04 08:14:41;;;;;;;1999.90;999.90;;;14.10;58.80;;;;;;5028249;28;20036;-82
2022/05/04 08:17:07;;;;;;;1999.90;999.90;;;14.10;58.80;;;;;;5036692;28;20057;-82
2022/05/04 08:19:33;;;;;;;1999.90;999.90;;;14.10;58.80;;;;;;5017361;28;20490;-82
2022/05/04 08:22:00;;;;;;;1999.90;999.90;;;14.10;58.80;;;;;;5030338;28;20029;-82
2022/05/04 08:24:27;;;;;;;1999.90;999.90;;;14.10;58.80;;;;;;5032559;28;20045;-82
2022/05/04 08:26:54;;;;;;;1999.90;999.90;;;14.10;58.80;;;;;;5032514;28;20025;-82
2022/05/04 08:29:20;;;;;;;1999.90;999.90;;;14.10;58.80;;;;;;5032567;28;20030;-82
2022/05/04 08:31:46;;;;;;;1999.90;999.90;;;14.20;58.80;;;;;;5025975;28;20474;-82
2022/05/04 08:34:12;;;;;;;1999.90;999.90;;;14.20;58.80;;;;;;5030621;28;20033;-82
2022/05/04 08:36:38;;;;;;;1999.90;999.90;;;14.20;58.80;;;;;;5029548;28;20064;-82
2022/05/04 08:39:06;;;;;;;1999.90;999.90;;;14.20;58.80;;;;;;5015981;28;20032;-82
2022/05/04 08:41:39;;;;;;;1999.90;999.90;;;14.20;58.80;;;;;;5029767;28;20025;-82
2022/05/04 08:44:10;;;;;;;1999.90;999.90;;;14.30;58.90;;;;;;5029160;28;20037;-82
2022/05/04 08:46:40;;;;;;;;;;;14.30;58.90;;;;;;5012718;28;20033;-82
2022/05/04 08:49:06;;;;;;;1999.90;999.90;;;14.30;58.90;;;;;;5031811;28;19909;-82
2022/05/04 08:51:34;;;;;;;1999.90;999.90;;;14.30;59.50;;;;;;5045267;28;20033;-82
2022/05/04 08:54:00;;;;;;;1999.90;999.90;;;14.30;58.90;;;;;;5015164;28;20025;-82
2022/05/04 08:56:26;;;;;;;1999.90;999.90;;;14.30;58.90;;;;;;5012536;28;20029;-82
2022/05/04 08:58:52;;;;;;;1999.90;999.90;;;14.30;59.00;;;;;;5028755;28;20018;-82
2022/05/04 09:01:19;;;;;;;1999.90;999.90;;;14.30;58.90;;;;;;5030846;28;20042;-82
2022/05/04 09:03:45;;;;;;;1999.90;999.90;;;14.40;58.90;;;;;;5019726;28;20044;-82
2022/05/04 09:06:11;;;;;;;1999.90;999.90;;;14.50;58.80;;;;;;5032865;28;20387;-82
2022/05/04 09:08:56;;;;;;;1999.90;999.90;;;14.60;58.80;;;;;;5028814;28;20049;-82
2022/05/04 09:11:23;;;;;;;1999.90;999.90;;;14.60;58.70;;;;;;5029730;28;20390;-82
2022/05/04 09:13:49;;;;;;;1999.90;999.90;;;14.70;58.70;;;;;;5022437;28;20036;-82
2022/05/04 09:16:32;;;;;;;1999.90;999.90;;;14.70;58.70;;;;;;5029587;28;20064;-82
2022/05/04 09:19:05;;;;;;;1999.90;999.90;;;14.70;58.70;;;;;;5012313;28;20052;-82
2022/05/04 09:21:31;;;;;;;1999.90;999.90;;;14.80;58.60;;;;;;5029006;28;20036;-82
2022/05/04 09:23:57;;;;;;;1999.90;999.90;;;14.90;58.60;;;;;;5014252;28;20501;-82
2022/05/04 09:26:23;;;;;;;1999.90;999.90;;;14.90;58.50;;;;;;5028036;28;20055;-82
2022/05/04 09:29:06;;;;;;;1999.90;999.90;;;15.00;58.40;;;;;;5028194;28;20037;-82
2022/05/04 09:31:32;;;;;;;1999.90;999.90;;;15.10;58.40;;;;;;5012291;28;20403;-82
2022/05/04 09:34:03;;;;;;;1999.90;999.90;;;15.20;58.40;;;;;;5024638;28;20041;-82
2022/05/04 09:36:31;;;;;;;1999.90;999.90;;;15.30;58.30;;;;;;5043089;28;20092;-82
2022/05/04 09:47:19;;;;;;;1999.90;999.90;;;15.60;58.10;;;;;;5037103;28;20029;-82
2022/05/04 09:49:47;;;;;;;1999.90;999.90;;;15.60;58.10;;;;;;5032071;28;20040;-82
2022/05/04 09:52:14;;;;;;;1999.90;999.90;;;15.70;57.90;;;;;;5012568;28;20096;-82
2022/05/04 09:54:40;;;;;;;1999.90;999.90;;;15.90;57.90;;;;;;5012211;28;20044;-82
2022/05/04 09:57:07;;;;;;;1999.90;999.90;;;16.10;57.70;;;;;;5014946;28;20021;-82
2022/05/04 09:59:34;;;;;;;1999.90;999.90;;;16.20;57.50;;;;;;5032140;28;20037;-83
2022/05/04 10:02:02;;;;;;;1999.90;999.90;;;16.40;57.30;;;;;;5026131;28;20386;-82
2022/05/04 10:04:28;;;;;;;1999.90;999.90;;;16.70;57.20;;;;;;5039290;28;20056;-83
2022/05/04 10:06:54;;;;;;;1999.90;999.90;;;16.90;57.00;;;;;;5027883;28;20026;-83
2022/05/04 10:09:21;;;;;;;1999.90;999.90;;;17.00;56.70;;;;;;5027512;28;20045;-83
2022/05/04 10:11:53;;;;;;;1999.90;999.90;;;17.20;56.60;;;;;;5028523;28;20467;-83
2022/05/04 10:14:19;;;;;;;1999.90;999.90;;;17.40;56.50;;;;;;5012055;28;20032;-83
2022/05/04 10:17:04;;;;;;;1999.90;999.90;;;17.60;56.30;;;;;;5010028;28;20342;-83
2022/05/04 10:19:53;;;;;;;1999.90;999.90;;;17.70;56.20;;;;;;5027588;28;20495;-83
2022/05/04 10:22:24;;;;;;;1999.90;999.90;;;17.90;56.00;;;;;;5023801;28;20033;-83
2022/05/04 10:24:51;;;;;;;1999.90;999.90;;;18.10;55.80;;;;;;5025620;28;20041;-83
2022/05/04 10:27:25;;;;;;;1999.90;999.90;;;18.30;55.60;;;;;;5030875;28;20044;-83
2022/05/04 10:32:50;;;;;;;1999.90;999.90;;;18.60;55.30;;;;;;5030865;28;20045;-83
2022/05/04 10:35:40;;;;;;;1999.90;999.90;;;18.70;55.30;;;;;;5017554;28;20026;-83
2022/05/04 10:38:30;;;;;;;1999.90;999.90;;;18.70;55.30;;;;;;5028098;28;20030;-83
2022/05/04 10:40:57;;;;;;;1999.90;999.90;;;18.70;55.30;;;;;;5027773;28;20028;-83
2022/05/04 10:43:36;;;;;;;1999.90;999.90;;;18.80;55.10;;;;;;5038994;28;20045;-83
2022/05/04 10:46:09;;;;;;;1999.90;999.90;;;18.90;55.20;;;;;;5026042;28;20034;-83
2022/05/04 10:48:35;;;;;;;1999.90;999.90;;;19.10;54.80;;;;;;5044052;28;20038;-83
2022/05/04 10:51:09;;;;;;;1999.90;999.90;;;19.30;54.60;;;;;;5030363;28;20032;-83
2022/05/04 10:53:37;;;;;;;1999.90;999.90;;;19.50;54.40;;;;;;5028316;28;20426;-83
2022/05/04 10:56:12;;;;;;;1999.90;999.90;;;19.70;54.10;;;;;;5019193;28;20025;-83
2022/05/04 10:58:50;;;;;;;1999.90;999.90;;;19.80;53.90;;;;;;5014772;28;20033;-83
2022/05/04 11:01:27;;;;;;;1999.90;999.90;;;19.90;53.70;;;;;;5025330;28;20034;-83
2022/05/04 11:04:09;;;;;;;1999.90;999.90;;;19.90;53.70;;;;;;5026483;28;20068;-83
2022/05/04 11:06:36;;;;;;;1999.90;999.90;;;20.00;53.50;;;;;;5043173;28;20459;-83
2022/05/04 11:09:07;;;;;;;1999.90;999.90;;;20.10;53.20;;;;;;5029675;28;20045;-83
2022/05/04 11:11:34;;;;;;;1999.90;999.90;;;20.20;53.00;;;;;;5026414;28;20462;-83
2022/05/04 11:14:01;;;;;;;1999.90;999.90;;;20.40;52.70;;;;;;5010312;28;20040;-83
2022/05/04 11:16:28;;;;;;;1999.90;999.90;;;20.60;52.60;;;;;;5025985;28;20506;-83
2022/05/04 11:19:03;;;;;;;1999.90;999.90;;;20.80;52.30;;;;;;5027780;28;20034;-83
2022/05/04 11:21:30;;;;;;;1999.90;999.90;;;21.00;51.80;;;;;;5027070;28;20517;-83
2022/05/04 11:23:58;;;;;;;1999.90;999.90;;;21.10;51.50;;;;;;5028387;28;20037;-83
2022/05/04 11:26:26;;;;;;;1999.90;999.90;;;21.00;52.10;;;;;;5010322;28;20030;-83
2022/05/04 11:28:52;;;;;;;1999.90;999.90;;;20.90;51.70;;;;;;5026317;28;20044;-83
2022/05/04 11:31:19;;;;;;;1999.90;999.90;;;20.80;51.90;;;;;;5024518;28;20041;-83
2022/05/04 11:33:46;;;;;;;1999.90;999.90;;;20.60;52.00;;;;;;5027507;28;20514;-82
2022/05/04 11:36:12;;;;;;;1999.90;999.90;;;20.50;52.10;;;;;;5023315;28;20364;-83
2022/05/04 11:38:38;;;;;;;1999.90;999.90;;;20.30;52.20;;;;;;5027930;28;20026;-83
2022/05/04 11:41:05;;;;;;;1999.90;999.90;;;20.20;52.30;;;;;;5019076;28;20394;-83
2022/05/04 11:43:34;;;;;;;1999.90;999.90;;;20.00;52.30;;;;;;5028970;28;20049;-83
2022/05/04 11:46:07;;;;;;;1999.90;999.90;;;19.90;52.30;;;;;;5021969;28;22023;-83
2022/05/04 11:48:44;;;;;;;1999.90;999.90;;;19.70;52.30;;;;;;5026521;28;20034;-82
2022/05/04 11:51:10;;;;;;;1999.90;999.90;;;19.60;52.40;;;;;;5009648;28;20048;-82
2022/05/04 11:53:37;;;;;;;1999.90;999.90;;;19.50;52.50;;;;;;5042706;28;20030;-82
2022/05/04 11:56:04;;;;;;;1999.90;999.90;;;19.50;52.50;;;;;;5012630;28;20037;-82
2022/05/04 11:58:31;;;;;;;1999.90;999.90;;;19.40;52.50;;;;;;5009383;28;20037;-82
2022/05/04 12:00:58;;;;;;;1999.90;999.90;;;19.40;52.50;;;;;;5022212;28;20034;-82
2022/05/04 12:03:24;;;;;;;1999.90;999.90;;;19.30;52.50;;;;;;5043143;28;20033;-82
2022/05/04 12:05:51;;;;;;;1999.90;999.90;;;19.30;52.50;;;;;;5010989;28;20033;-82
2022/05/04 12:08:20;;;;;;;1999.90;999.90;;;19.30;52.50;;;;;;5009466;28;20033;-82
2022/05/04 12:10:50;;;;;;;1999.90;999.90;;;19.20;52.40;;;;;;5009923;28;20029;-82
2022/05/04 12:13:21;;;;;;;1999.90;999.90;;;19.20;52.40;;;;;;5012386;28;20056;-83
2022/05/04 12:15:47;;;;;;;1999.90;999.90;;;19.20;52.50;;;;;;5023766;28;20045;-82
2022/05/04 12:18:13;;;;;;;1999.90;999.90;;;19.20;52.50;;;;;;5030034;28;20034;-82
2022/05/04 12:20:43;;;;;;;1999.90;999.90;;;19.20;52.30;;;;;;5026384;28;20368;-82
2022/05/04 12:23:10;;;;;;;1999.90;999.90;;;19.20;52.20;;;;;;5027018;28;20375;-82
2022/05/04 12:25:36;;;;;;;1999.90;999.90;;;19.20;52.80;;;;;;5025634;28;20057;-83
2022/05/04 12:28:02;;;;;;;1999.90;999.90;;;19.10;52.00;;;;;;5028507;28;20033;-82
2022/05/04 12:33:13;;;;;;;1999.90;999.90;;;19.20;52.00;;;;;;5024474;28;20033;-82
2022/05/04 12:35:43;;;;;;;1999.90;999.90;;;19.10;51.90;;;;;;5029925;28;20025;-82